createdAt,value
2023-02-20T00:00:45.243Z,5.67
2023-02-20T00:05:01.587Z,5.75
2023-02-20T00:09:17.996Z,5.78
2023-02-20T00:13:34.324Z,5.63
2023-02-20T00:17:51.015Z,5.53
2023-02-20T00:22:07.320Z,5.74
2023-02-20T00:26:23.631Z,5.57
2023-02-20T00:30:40.004Z,5.59
2023-02-20T00:34:56.371Z,5.35
2023-02-20T00:39:13.149Z,5.41
2023-02-20T00:43:29.690Z,5.67
2023-02-20T00:47:49.225Z,5.56
2023-02-20T00:52:05.543Z,5.52
2023-02-20T00:56:21.950Z,5.49
2023-02-20T01:00:38.542Z,5.63
2023-02-20T01:04:56.940Z,5.43
2023-02-20T01:09:13.736Z,5.50
2023-02-20T01:13:30.102Z,5.20
2023-02-20T01:17:46.802Z,5.10
2023-02-20T01:22:06.607Z,4.90
2023-02-20T01:26:23.012Z,5.06
2023-02-20T01:30:39.482Z,4.96
2023-02-20T01:34:55.864Z,4.86
2023-02-20T01:39:12.113Z,5.08
2023-02-20T01:43:28.485Z,5.16
2023-02-20T01:47:44.714Z,5.08
2023-02-20T01:52:11.577Z,5.47
2023-02-20T01:56:28.261Z,5.13
2023-02-20T02:00:44.833Z,5.41
2023-02-20T02:05:02.058Z,5.20
2023-02-20T02:09:56.529Z,5.15
2023-02-20T02:14:12.831Z,5.26
2023-02-20T02:18:32.018Z,5.17
2023-02-20T02:22:57.607Z,4.70
2023-02-20T02:27:31.633Z,5.05
2023-02-20T02:32:11.285Z,5.10
2023-02-20T02:36:50.473Z,4.89
2023-02-20T02:41:11.676Z,4.89
2023-02-20T02:45:42.432Z,4.87
2023-02-20T02:50:01.531Z,4.85
2023-02-20T02:54:28.702Z,4.76
2023-02-20T02:58:45.032Z,4.77
2023-02-20T03:03:18.021Z,4.83
2023-02-20T03:07:36.550Z,4.85
2023-02-20T03:11:53.855Z,4.52
2023-02-20T03:16:12.049Z,4.36
2023-02-20T03:20:28.509Z,4.56
2023-02-20T03:24:58.343Z,4.65
2023-02-20T03:29:30.652Z,4.70
2023-02-20T03:34:09.656Z,4.63
2023-02-20T03:38:44.567Z,4.66
2023-02-20T03:43:28.518Z,4.67
2023-02-20T03:47:48.373Z,4.33
2023-02-20T03:52:05.274Z,4.61
2023-02-20T03:56:25.565Z,4.46
2023-02-20T04:00:45.457Z,4.42
2023-02-20T04:05:08.453Z,4.39
2023-02-20T04:09:31.165Z,4.70
2023-02-20T04:13:49.188Z,4.65
2023-02-20T04:18:18.487Z,4.65
2023-02-20T04:22:38.778Z,4.55
2023-02-20T04:26:55.196Z,4.52
2023-02-20T04:31:14.550Z,4.17
2023-02-20T04:35:30.885Z,3.96
2023-02-20T04:39:47.490Z,4.02
2023-02-20T04:44:22.163Z,3.65
2023-02-20T04:48:38.429Z,3.57
2023-02-20T04:52:54.875Z,3.46
2023-02-20T04:57:11.089Z,3.55
2023-02-20T05:01:27.244Z,4.09
2023-02-20T05:05:43.524Z,4.32
2023-02-20T05:09:59.833Z,4.28
2023-02-20T05:14:16.492Z,4.30
2023-02-20T05:18:32.772Z,4.39
2023-02-20T05:22:49.293Z,4.59
2023-02-20T05:27:05.482Z,4.58
2023-02-20T05:31:21.778Z,4.58
2023-02-20T05:35:40.185Z,3.72
2023-02-20T05:39:56.428Z,4.49
2023-02-20T05:44:12.799Z,4.22
2023-02-20T05:48:29.196Z,4.20
2023-02-20T05:52:45.530Z,4.57
2023-02-20T05:57:02.293Z,4.58
2023-02-20T06:01:23.881Z,4.54
2023-02-20T06:05:40.139Z,4.91
2023-02-20T06:09:58.161Z,4.89
2023-02-20T06:14:15.795Z,4.65
2023-02-20T06:18:32.011Z,4.58
2023-02-20T06:22:49.694Z,4.86
2023-02-20T06:27:08.750Z,5.02
2023-02-20T06:31:28.802Z,5.08
2023-02-20T06:35:45.175Z,5.30
2023-02-20T06:40:01.619Z,5.38
2023-02-20T06:44:17.860Z,5.41
2023-02-20T06:48:34.076Z,5.23
2023-02-20T06:52:50.296Z,4.56
2023-02-20T06:57:06.740Z,4.47
2023-02-20T07:01:27.169Z,5.05
2023-02-20T07:05:43.392Z,5.24
2023-02-20T07:10:01.730Z,4.45
2023-02-20T07:14:17.909Z,5.36
2023-02-20T07:18:34.149Z,5.26
2023-02-20T07:22:56.667Z,4.97
2023-02-20T07:27:14.175Z,4.53
2023-02-20T07:31:30.486Z,4.55
2023-02-20T07:35:47.254Z,5.16
2023-02-20T07:40:03.752Z,5.12
2023-02-20T07:44:19.985Z,5.35
2023-02-20T07:48:37.176Z,5.10
2023-02-20T07:52:53.403Z,5.35
2023-02-20T07:57:10.004Z,5.57
2023-02-20T08:01:26.226Z,5.08
2023-02-20T08:05:49.713Z,5.35
2023-02-20T08:10:07.050Z,5.57
2023-02-20T08:14:23.243Z,5.42
2023-02-20T08:18:41.391Z,5.42
2023-02-20T08:22:57.603Z,5.55
2023-02-20T08:27:13.741Z,5.26
2023-02-20T08:31:32.977Z,5.12
2023-02-20T08:35:51.634Z,4.38
2023-02-20T08:40:09.087Z,4.64
2023-02-20T08:44:25.338Z,3.92
2023-02-20T08:48:41.975Z,4.75
2023-02-20T08:52:58.165Z,4.58
2023-02-20T08:57:17.897Z,3.81
2023-02-20T09:01:34.189Z,4.47
2023-02-20T09:05:50.440Z,5.13
2023-02-20T09:10:06.869Z,5.16
2023-02-20T09:14:23.106Z,4.86
2023-02-20T09:18:39.327Z,5.18
2023-02-20T09:22:58.024Z,5.14
2023-02-20T09:27:14.246Z,5.44
2023-02-20T09:31:30.980Z,5.88
2023-02-20T09:35:49.550Z,5.89
2023-02-20T09:40:05.988Z,4.92
2023-02-20T09:44:46.328Z,5.51
2023-02-20T09:49:34.365Z,5.82
2023-02-20T09:53:50.572Z,6.29
2023-02-20T09:58:07.625Z,6.59
2023-02-20T10:02:44.102Z,6.64
2023-02-20T10:07:16.901Z,6.51
2023-02-20T10:11:51.899Z,6.45
2023-02-20T10:16:32.539Z,6.52
2023-02-20T10:21:01.821Z,6.51
2023-02-20T10:25:43.300Z,7.02
2023-02-20T10:30:00.692Z,8.01
2023-02-20T10:34:41.871Z,8.35
2023-02-20T10:39:16.130Z,7.72
2023-02-20T10:44:06.288Z,8.26
2023-02-20T10:48:24.433Z,7.41
2023-02-20T10:52:48.013Z,6.98
2023-02-20T10:57:19.870Z,7.46
2023-02-20T11:01:41.985Z,7.57
2023-02-20T11:06:01.643Z,8.09
2023-02-20T11:10:20.323Z,8.02
2023-02-20T11:14:42.163Z,7.76
2023-02-20T11:19:06.525Z,8.69
2023-02-20T11:23:44.278Z,8.72
2023-02-20T11:28:33.118Z,8.67
2023-02-20T11:32:50.150Z,8.39
2023-02-20T11:37:07.920Z,9.29
2023-02-20T11:41:35.210Z,8.62
2023-02-20T11:46:07.139Z,9.54
2023-02-20T11:50:25.658Z,10.19
2023-02-20T11:54:41.952Z,11.10
2023-02-20T11:59:21.896Z,11.01
2023-02-20T12:03:38.078Z,11.77
2023-02-20T12:07:58.250Z,12.39
2023-02-20T12:12:15.222Z,12.66
2023-02-20T12:16:50.308Z,12.50
2023-02-20T12:21:17.532Z,12.23
2023-02-20T12:25:53.831Z,12.51
2023-02-20T12:30:38.116Z,13.00
2023-02-20T12:35:13.003Z,12.34
2023-02-20T12:39:31.147Z,11.85
2023-02-20T12:44:12.367Z,11.32
2023-02-20T12:48:35.960Z,11.66
2023-02-20T12:53:00.262Z,12.31
2023-02-20T12:57:42.339Z,12.00
2023-02-20T13:02:05.047Z,12.46
2023-02-20T13:06:51.801Z,12.21
2023-02-20T13:11:23.516Z,11.40
2023-02-20T13:15:42.294Z,11.86
2023-02-20T13:20:19.637Z,11.45
2023-02-20T13:24:40.199Z,11.17
2023-02-20T13:29:12.890Z,11.46
2023-02-20T13:33:32.703Z,11.13
2023-02-20T13:37:56.324Z,11.48
2023-02-20T13:42:34.956Z,11.72
2023-02-20T13:46:58.820Z,11.48
2023-02-20T13:51:23.245Z,11.07
2023-02-20T13:55:43.391Z,11.19
2023-02-20T14:00:01.068Z,11.34
2023-02-20T14:04:22.115Z,11.38
2023-02-20T14:08:41.956Z,11.89
2023-02-20T14:13:02.149Z,11.64
2023-02-20T14:17:21.871Z,11.93
2023-02-20T14:21:38.674Z,11.63
2023-02-20T14:26:03.397Z,11.53
2023-02-20T14:30:23.739Z,11.49
2023-02-20T14:35:05.506Z,11.78
2023-02-20T14:39:24.844Z,11.39
2023-02-20T14:43:41.314Z,11.76
2023-02-20T14:48:02.016Z,11.66
2023-02-20T14:52:23.631Z,11.72
2023-02-20T14:56:40.167Z,11.69
2023-02-20T15:00:59.927Z,11.60
2023-02-20T15:05:20.006Z,11.53
2023-02-20T15:09:42.509Z,11.79
2023-02-20T15:14:00.950Z,11.30
2023-02-20T15:18:39.456Z,12.00
2023-02-20T15:23:15.622Z,14.19
2023-02-20T15:27:33.531Z,15.64
2023-02-20T15:32:16.427Z,15.50
2023-02-20T15:36:34.561Z,14.52
2023-02-20T15:40:50.849Z,13.66
2023-02-20T15:45:09.288Z,13.00
2023-02-20T15:49:25.465Z,13.16
2023-02-20T15:53:42.952Z,12.24
2023-02-20T15:58:06.501Z,12.77
2023-02-20T16:02:24.926Z,12.18
2023-02-20T16:06:45.524Z,12.25
2023-02-20T16:11:01.856Z,12.14
2023-02-20T16:15:25.589Z,11.94
2023-02-20T16:19:43.087Z,12.05
2023-02-20T16:23:59.313Z,11.70
2023-02-20T16:28:15.562Z,11.82
2023-02-20T16:32:32.089Z,11.60
2023-02-20T16:36:48.220Z,11.76
2023-02-20T16:41:04.602Z,11.70
2023-02-20T16:45:21.359Z,11.47
2023-02-20T16:49:39.527Z,11.39
2023-02-20T16:53:55.710Z,11.52
2023-02-20T16:58:12.203Z,11.48
2023-02-20T17:02:31.764Z,11.42
2023-02-20T17:06:48.341Z,11.11
2023-02-20T17:11:04.710Z,10.93
2023-02-20T17:15:22.697Z,11.36
2023-02-20T17:19:40.637Z,11.26
2023-02-20T17:23:57.096Z,10.93
2023-02-20T17:28:16.040Z,10.65
2023-02-20T17:32:33.389Z,10.88
2023-02-20T17:36:49.834Z,10.70
2023-02-20T17:41:06.287Z,10.57
2023-02-20T17:45:22.892Z,10.10
2023-02-20T17:49:41.285Z,10.04
2023-02-20T17:53:57.907Z,10.09
2023-02-20T17:58:15.013Z,10.61
2023-02-20T18:02:31.380Z,10.82
2023-02-20T18:06:48.011Z,10.82
2023-02-20T18:11:04.222Z,11.06
2023-02-20T18:15:20.654Z,11.00
2023-02-20T18:19:36.997Z,10.82
2023-02-20T18:23:53.603Z,11.01
2023-02-20T18:28:10.683Z,10.94
2023-02-20T18:32:27.220Z,10.94
2023-02-20T18:36:43.654Z,10.85
2023-02-20T18:40:59.930Z,10.94
2023-02-20T18:45:16.209Z,10.96
2023-02-20T18:49:32.601Z,11.04
2023-02-20T18:53:49.812Z,10.78
2023-02-20T18:58:06.111Z,10.82
2023-02-20T19:02:22.376Z,10.65
2023-02-20T19:06:40.856Z,10.59
2023-02-20T19:10:57.063Z,10.77
2023-02-20T19:15:13.558Z,11.04
2023-02-20T19:19:31.760Z,10.98
2023-02-20T19:23:48.293Z,10.83
2023-02-20T19:28:04.704Z,10.84
2023-02-20T19:32:23.481Z,10.55
2023-02-20T19:36:41.410Z,10.63
2023-02-20T19:40:57.627Z,10.69
2023-02-20T19:45:13.790Z,10.62
2023-02-20T19:49:29.965Z,10.70
2023-02-20T19:53:46.424Z,10.53
2023-02-20T19:58:03.109Z,10.75
2023-02-20T20:02:19.398Z,10.85
2023-02-20T20:06:35.714Z,10.66
2023-02-20T20:10:53.028Z,10.62
2023-02-20T20:15:09.627Z,10.30
2023-02-20T20:19:25.751Z,10.40
2023-02-20T20:23:41.966Z,10.43
2023-02-20T20:28:02.147Z,10.72
2023-02-20T20:32:19.678Z,10.42
2023-02-20T20:36:36.055Z,9.91
2023-02-20T20:40:52.483Z,9.94
2023-02-20T20:45:09.339Z,9.93
2023-02-20T20:49:25.569Z,9.78
2023-02-20T20:53:42.334Z,9.98
2023-02-20T20:57:58.483Z,9.84
2023-02-20T21:02:19.904Z,10.27
2023-02-20T21:06:36.089Z,9.87
2023-02-20T21:10:52.260Z,10.45
2023-02-20T21:15:09.844Z,10.08
2023-02-20T21:19:26.018Z,10.06
2023-02-20T21:23:45.394Z,9.92
2023-02-20T21:28:02.500Z,10.03
2023-02-20T21:32:18.814Z,10.40
2023-02-20T21:36:35.189Z,9.81
2023-02-20T21:40:51.404Z,10.01
2023-02-20T21:45:07.824Z,10.01
2023-02-20T21:49:24.348Z,9.95
2023-02-20T21:53:40.500Z,9.56
2023-02-20T21:57:57.020Z,9.36
2023-02-20T22:02:22.820Z,9.55
2023-02-20T22:06:39.499Z,9.61
2023-02-20T22:11:14.399Z,9.55
2023-02-20T22:15:49.216Z,9.51
2023-02-20T22:20:25.115Z,9.46
2023-02-20T22:24:59.813Z,9.54
2023-02-20T22:29:34.761Z,9.39
2023-02-20T22:34:09.584Z,9.33
2023-02-20T22:38:44.441Z,9.73
2023-02-20T22:43:19.283Z,9.89
2023-02-20T22:47:54.604Z,10.29
2023-02-20T22:52:29.689Z,10.04
2023-02-20T22:57:04.327Z,9.86
2023-02-20T23:01:39.279Z,10.01
2023-02-20T23:06:18.008Z,9.86
2023-02-20T23:10:53.884Z,9.55
2023-02-20T23:15:28.568Z,9.79
2023-02-20T23:20:03.465Z,10.06
2023-02-20T23:24:37.931Z,9.79
2023-02-20T23:29:12.911Z,9.60
2023-02-20T23:33:47.610Z,9.60
2023-02-20T23:38:22.483Z,9.45
2023-02-20T23:42:57.591Z,8.68
2023-02-20T23:47:32.521Z,8.67
2023-02-20T23:52:15.904Z,9.13
2023-02-20T23:56:51.272Z,9.44
